sensor_id;sensor_type;location;lat;lon;timestamp;P1;durP1;ratioP1;P2;durP2;ratioP2
72275;SDS011;61204;49.980;8.358;2022-07-24T00:00:15;3.30;;;2.67;;
72275;SDS011;61204;49.980;8.358;2022-07-24T00:02:44;3.85;;;2.90;;
72275;SDS011;61204;49.980;8.358;2022-07-24T00:05:16;4.13;;;2.90;;
72275;SDS011;61204;49.980;8.358;2022-07-24T00:07:41;4.35;;;3.20;;
72275;SDS011;61204;49.980;8.358;2022-07-24T00:10:09;4.70;;;2.80;;
72275;SDS011;61204;49.980;8.358;2022-07-24T00:12:36;4.68;;;2.50;;
72275;SDS011;61204;49.980;8.358;2022-07-24T00:15:02;6.57;;;2.95;;
72275;SDS011;61204;49.980;8.358;2022-07-24T00:17:29;4.07;;;2.70;;
72275;SDS011;61204;49.980;8.358;2022-07-24T00:19:55;7.07;;;2.72;;
72275;SDS011;61204;49.980;8.358;2022-07-24T00:22:21;7.30;;;2.80;;
72275;SDS011;61204;49.980;8.358;2022-07-24T00:24:49;3.38;;;2.38;;
72275;SDS011;61204;49.980;8.358;2022-07-24T00:27:15;3.58;;;2.58;;
72275;SDS011;61204;49.980;8.358;2022-07-24T00:29:41;4.28;;;2.78;;
72275;SDS011;61204;49.980;8.358;2022-07-24T00:32:07;3.28;;;2.33;;
72275;SDS011;61204;49.980;8.358;2022-07-24T00:34:33;5.57;;;2.53;;
72275;SDS011;61204;49.980;8.358;2022-07-24T00:37:01;3.00;;;2.22;;
72275;SDS011;61204;49.980;8.358;2022-07-24T00:39:29;4.50;;;2.55;;
72275;SDS011;61204;49.980;8.358;2022-07-24T00:41:55;2.88;;;2.58;;
72275;SDS011;61204;49.980;8.358;2022-07-24T00:44:21;4.43;;;2.42;;
72275;SDS011;61204;49.980;8.358;2022-07-24T00:46:47;4.03;;;2.70;;
72275;SDS011;61204;49.980;8.358;2022-07-24T00:49:17;2.95;;;2.45;;
72275;SDS011;61204;49.980;8.358;2022-07-24T00:51:46;5.18;;;2.45;;
72275;SDS011;61204;49.980;8.358;2022-07-24T00:54:18;3.85;;;2.55;;
72275;SDS011;61204;49.980;8.358;2022-07-24T00:56:48;6.43;;;2.70;;
72275;SDS011;61204;49.980;8.358;2022-07-24T00:59:18;2.88;;;2.33;;
72275;SDS011;61204;49.980;8.358;2022-07-24T01:01:46;3.53;;;2.50;;
72275;SDS011;61204;49.980;8.358;2022-07-24T01:04:13;3.00;;;2.40;;
72275;SDS011;61204;49.980;8.358;2022-07-24T01:06:43;4.03;;;2.20;;
72275;SDS011;61204;49.980;8.358;2022-07-24T01:09:13;3.63;;;2.17;;
72275;SDS011;61204;49.980;8.358;2022-07-24T01:11:40;4.53;;;2.75;;
72275;SDS011;61204;49.980;8.358;2022-07-24T01:14:07;6.05;;;2.75;;
72275;SDS011;61204;49.980;8.358;2022-07-24T01:16:36;4.28;;;2.95;;
72275;SDS011;61204;49.980;8.358;2022-07-24T01:19:02;4.50;;;2.60;;
72275;SDS011;61204;49.980;8.358;2022-07-24T01:21:34;5.82;;;2.70;;
72275;SDS011;61204;49.980;8.358;2022-07-24T01:24:00;4.40;;;2.67;;
72275;SDS011;61204;49.980;8.358;2022-07-24T01:26:26;5.38;;;2.65;;
72275;SDS011;61204;49.980;8.358;2022-07-24T01:28:52;3.00;;;2.40;;
72275;SDS011;61204;49.980;8.358;2022-07-24T01:31:18;5.15;;;2.30;;
72275;SDS011;61204;49.980;8.358;2022-07-24T01:33:44;3.28;;;2.40;;
72275;SDS011;61204;49.980;8.358;2022-07-24T01:36:09;7.07;;;2.97;;
72275;SDS011;61204;49.980;8.358;2022-07-24T01:38:35;3.03;;;2.67;;
72275;SDS011;61204;49.980;8.358;2022-07-24T01:41:01;3.30;;;2.50;;
72275;SDS011;61204;49.980;8.358;2022-07-24T01:43:26;3.80;;;2.38;;
72275;SDS011;61204;49.980;8.358;2022-07-24T01:45:52;5.32;;;2.58;;
72275;SDS011;61204;49.980;8.358;2022-07-24T01:48:17;3.78;;;2.63;;
72275;SDS011;61204;49.980;8.358;2022-07-24T01:50:43;3.72;;;2.33;;
72275;SDS011;61204;49.980;8.358;2022-07-24T01:53:09;5.10;;;2.70;;
72275;SDS011;61204;49.980;8.358;2022-07-24T01:55:37;4.05;;;2.83;;
72275;SDS011;61204;49.980;8.358;2022-07-24T01:58:06;4.65;;;2.72;;
72275;SDS011;61204;49.980;8.358;2022-07-24T02:00:31;4.18;;;2.28;;
72275;SDS011;61204;49.980;8.358;2022-07-24T02:02:57;3.08;;;2.17;;
72275;SDS011;61204;49.980;8.358;2022-07-24T02:05:23;3.65;;;2.60;;
72275;SDS011;61204;49.980;8.358;2022-07-24T02:07:53;4.53;;;2.50;;
72275;SDS011;61204;49.980;8.358;2022-07-24T02:10:24;4.68;;;2.55;;
72275;SDS011;61204;49.980;8.358;2022-07-24T02:12:53;3.28;;;2.40;;
72275;SDS011;61204;49.980;8.358;2022-07-24T02:15:23;4.05;;;2.83;;
72275;SDS011;61204;49.980;8.358;2022-07-24T02:17:54;5.38;;;2.60;;
72275;SDS011;61204;49.980;8.358;2022-07-24T02:20:27;4.40;;;2.58;;
72275;SDS011;61204;49.980;8.358;2022-07-24T02:22:53;4.50;;;2.58;;
72275;SDS011;61204;49.980;8.358;2022-07-24T02:25:20;2.90;;;2.50;;
72275;SDS011;61204;49.980;8.358;2022-07-24T02:27:49;2.97;;;2.50;;
72275;SDS011;61204;49.980;8.358;2022-07-24T02:30:16;5.78;;;3.10;;
72275;SDS011;61204;49.980;8.358;2022-07-24T02:32:47;3.42;;;2.45;;
72275;SDS011;61204;49.980;8.358;2022-07-24T02:35:14;4.20;;;3.10;;
72275;SDS011;61204;49.980;8.358;2022-07-24T02:37:43;3.83;;;2.70;;
72275;SDS011;61204;49.980;8.358;2022-07-24T02:40:11;4.95;;;2.65;;
72275;SDS011;61204;49.980;8.358;2022-07-24T02:42:39;4.25;;;2.65;;
72275;SDS011;61204;49.980;8.358;2022-07-24T02:45:05;3.85;;;2.50;;
72275;SDS011;61204;49.980;8.358;2022-07-24T02:47:33;5.40;;;2.70;;
72275;SDS011;61204;49.980;8.358;2022-07-24T02:49:59;4.05;;;2.85;;
72275;SDS011;61204;49.980;8.358;2022-07-24T02:52:25;4.68;;;2.72;;
72275;SDS011;61204;49.980;8.358;2022-07-24T02:54:53;4.65;;;2.80;;
72275;SDS011;61204;49.980;8.358;2022-07-24T02:57:19;3.65;;;2.63;;
72275;SDS011;61204;49.980;8.358;2022-07-24T02:59:44;4.07;;;2.90;;
72275;SDS011;61204;49.980;8.358;2022-07-24T03:02:15;4.25;;;2.60;;
72275;SDS011;61204;49.980;8.358;2022-07-24T03:04:40;4.72;;;2.80;;
72275;SDS011;61204;49.980;8.358;2022-07-24T03:07:08;3.30;;;2.65;;
72275;SDS011;61204;49.980;8.358;2022-07-24T03:09:33;3.10;;;2.80;;
72275;SDS011;61204;49.980;8.358;2022-07-24T03:11:59;4.47;;;3.08;;
72275;SDS011;61204;49.980;8.358;2022-07-24T03:14:25;3.83;;;2.72;;
72275;SDS011;61204;49.980;8.358;2022-07-24T03:16:52;4.85;;;2.97;;
72275;SDS011;61204;49.980;8.358;2022-07-24T03:19:18;5.10;;;2.67;;
72275;SDS011;61204;49.980;8.358;2022-07-24T03:21:43;3.92;;;2.58;;
72275;SDS011;61204;49.980;8.358;2022-07-24T03:24:09;4.05;;;2.85;;
72275;SDS011;61204;49.980;8.358;2022-07-24T03:26:35;4.07;;;2.58;;
72275;SDS011;61204;49.980;8.358;2022-07-24T03:29:00;6.50;;;2.78;;
72275;SDS011;61204;49.980;8.358;2022-07-24T03:31:28;8.52;;;3.28;;
72275;SDS011;61204;49.980;8.358;2022-07-24T03:33:54;3.72;;;2.72;;
72275;SDS011;61204;49.980;8.358;2022-07-24T03:36:19;3.47;;;2.80;;
72275;SDS011;61204;49.980;8.358;2022-07-24T03:38:47;5.63;;;2.70;;
72275;SDS011;61204;49.980;8.358;2022-07-24T03:41:13;4.63;;;2.88;;
72275;SDS011;61204;49.980;8.358;2022-07-24T03:43:39;4.30;;;2.83;;
72275;SDS011;61204;49.980;8.358;2022-07-24T03:46:04;4.90;;;3.17;;
72275;SDS011;61204;49.980;8.358;2022-07-24T03:48:30;3.17;;;2.45;;
72275;SDS011;61204;49.980;8.358;2022-07-24T03:50:55;4.10;;;3.10;;
72275;SDS011;61204;49.980;8.358;2022-07-24T03:53:21;4.00;;;3.05;;
72275;SDS011;61204;49.980;8.358;2022-07-24T03:55:47;4.88;;;2.97;;
72275;SDS011;61204;49.980;8.358;2022-07-24T03:58:15;5.50;;;2.90;;
72275;SDS011;61204;49.980;8.358;2022-07-24T04:00:41;4.18;;;2.95;;
72275;SDS011;61204;49.980;8.358;2022-07-24T04:03:07;5.53;;;2.97;;
72275;SDS011;61204;49.980;8.358;2022-07-24T04:05:32;4.68;;;3.15;;
72275;SDS011;61204;49.980;8.358;2022-07-24T04:07:58;5.78;;;2.75;;
72275;SDS011;61204;49.980;8.358;2022-07-24T04:10:23;3.83;;;2.92;;
72275;SDS011;61204;49.980;8.358;2022-07-24T04:12:52;3.83;;;3.03;;
72275;SDS011;61204;49.980;8.358;2022-07-24T04:15:17;5.90;;;3.25;;
72275;SDS011;61204;49.980;8.358;2022-07-24T04:17:43;3.30;;;3.00;;
72275;SDS011;61204;49.980;8.358;2022-07-24T04:20:09;3.67;;;3.10;;
72275;SDS011;61204;49.980;8.358;2022-07-24T04:22:36;4.00;;;3.30;;
72275;SDS011;61204;49.980;8.358;2022-07-24T04:25:02;4.63;;;3.00;;
72275;SDS011;61204;49.980;8.358;2022-07-24T04:27:32;5.43;;;3.00;;
72275;SDS011;61204;49.980;8.358;2022-07-24T04:29:58;3.75;;;3.28;;
72275;SDS011;61204;49.980;8.358;2022-07-24T04:32:24;5.35;;;3.58;;
72275;SDS011;61204;49.980;8.358;2022-07-24T04:34:50;6.28;;;3.10;;
72275;SDS011;61204;49.980;8.358;2022-07-24T04:37:16;3.70;;;3.00;;
72275;SDS011;61204;49.980;8.358;2022-07-24T04:39:44;4.00;;;3.08;;
72275;SDS011;61204;49.980;8.358;2022-07-24T04:42:09;3.22;;;2.63;;
72275;SDS011;61204;49.980;8.358;2022-07-24T04:44:35;3.55;;;2.97;;
72275;SDS011;61204;49.980;8.358;2022-07-24T04:47:01;4.22;;;3.10;;
72275;SDS011;61204;49.980;8.358;2022-07-24T04:49:26;7.07;;;3.15;;
72275;SDS011;61204;49.980;8.358;2022-07-24T04:51:52;4.95;;;3.10;;
72275;SDS011;61204;49.980;8.358;2022-07-24T04:54:17;6.82;;;3.28;;
72275;SDS011;61204;49.980;8.358;2022-07-24T04:56:43;4.10;;;2.97;;
72275;SDS011;61204;49.980;8.358;2022-07-24T04:59:09;4.18;;;2.88;;
72275;SDS011;61204;49.980;8.358;2022-07-24T05:01:36;4.95;;;3.10;;
72275;SDS011;61204;49.980;8.358;2022-07-24T05:04:03;3.60;;;3.03;;
72275;SDS011;61204;49.980;8.358;2022-07-24T05:06:29;4.38;;;2.92;;
72275;SDS011;61204;49.980;8.358;2022-07-24T05:09:00;3.40;;;2.97;;
72275;SDS011;61204;49.980;8.358;2022-07-24T05:11:26;3.65;;;3.03;;
72275;SDS011;61204;49.980;8.358;2022-07-24T05:13:51;4.80;;;2.70;;
72275;SDS011;61204;49.980;8.358;2022-07-24T05:16:17;3.33;;;2.88;;
72275;SDS011;61204;49.980;8.358;2022-07-24T05:18:42;4.00;;;3.30;;
72275;SDS011;61204;49.980;8.358;2022-07-24T05:21:08;3.97;;;2.83;;
72275;SDS011;61204;49.980;8.358;2022-07-24T05:23:34;3.83;;;2.67;;
72275;SDS011;61204;49.980;8.358;2022-07-24T05:25:59;6.25;;;3.05;;
72275;SDS011;61204;49.980;8.358;2022-07-24T05:28:27;4.30;;;3.10;;
72275;SDS011;61204;49.980;8.358;2022-07-24T05:30:53;3.40;;;2.60;;
72275;SDS011;61204;49.980;8.358;2022-07-24T05:33:18;4.45;;;2.88;;
72275;SDS011;61204;49.980;8.358;2022-07-24T05:35:44;4.57;;;2.88;;
72275;SDS011;61204;49.980;8.358;2022-07-24T05:38:12;4.05;;;3.15;;
72275;SDS011;61204;49.980;8.358;2022-07-24T05:40:37;4.45;;;2.92;;
72275;SDS011;61204;49.980;8.358;2022-07-24T05:43:03;7.25;;;2.97;;
72275;SDS011;61204;49.980;8.358;2022-07-24T05:45:29;4.32;;;3.38;;
72275;SDS011;61204;49.980;8.358;2022-07-24T05:47:54;5.40;;;2.95;;
72275;SDS011;61204;49.980;8.358;2022-07-24T05:50:20;3.35;;;2.70;;
72275;SDS011;61204;49.980;8.358;2022-07-24T05:52:45;5.05;;;2.55;;
72275;SDS011;61204;49.980;8.358;2022-07-24T05:55:13;3.40;;;2.70;;
72275;SDS011;61204;49.980;8.358;2022-07-24T05:57:39;5.95;;;2.75;;
72275;SDS011;61204;49.980;8.358;2022-07-24T06:00:05;3.90;;;2.85;;
72275;SDS011;61204;49.980;8.358;2022-07-24T06:02:34;8.13;;;3.00;;
72275;SDS011;61204;49.980;8.358;2022-07-24T06:05:00;5.10;;;2.78;;
72275;SDS011;61204;49.980;8.358;2022-07-24T06:07:25;3.50;;;2.50;;
72275;SDS011;61204;49.980;8.358;2022-07-24T06:09:51;2.78;;;2.55;;
72275;SDS011;61204;49.980;8.358;2022-07-24T06:12:17;3.03;;;2.53;;
72275;SDS011;61204;49.980;8.358;2022-07-24T06:14:42;4.20;;;2.80;;
72275;SDS011;61204;49.980;8.358;2022-07-24T06:17:08;3.90;;;2.40;;
72275;SDS011;61204;49.980;8.358;2022-07-24T06:19:36;3.75;;;2.50;;
72275;SDS011;61204;49.980;8.358;2022-07-24T06:22:02;4.57;;;2.47;;
72275;SDS011;61204;49.980;8.358;2022-07-24T06:24:30;3.13;;;2.22;;
72275;SDS011;61204;49.980;8.358;2022-07-24T06:26:57;5.65;;;2.20;;
72275;SDS011;61204;49.980;8.358;2022-07-24T06:29:23;2.85;;;2.13;;
72275;SDS011;61204;49.980;8.358;2022-07-24T06:31:48;5.20;;;2.40;;
72275;SDS011;61204;49.980;8.358;2022-07-24T06:34:14;3.50;;;2.35;;
72275;SDS011;61204;49.980;8.358;2022-07-24T06:36:48;3.17;;;2.08;;
72275;SDS011;61204;49.980;8.358;2022-07-24T06:39:15;3.05;;;2.35;;
72275;SDS011;61204;49.980;8.358;2022-07-24T06:41:42;2.83;;;2.40;;
72275;SDS011;61204;49.980;8.358;2022-07-24T06:44:07;5.18;;;2.75;;
72275;SDS011;61204;49.980;8.358;2022-07-24T06:46:33;3.53;;;2.20;;
72275;SDS011;61204;49.980;8.358;2022-07-24T06:48:59;3.63;;;2.40;;
72275;SDS011;61204;49.980;8.358;2022-07-24T06:51:27;3.35;;;2.00;;
72275;SDS011;61204;49.980;8.358;2022-07-24T06:53:52;2.92;;;2.10;;
72275;SDS011;61204;49.980;8.358;2022-07-24T06:56:18;4.00;;;2.42;;
72275;SDS011;61204;49.980;8.358;2022-07-24T06:58:44;3.72;;;2.10;;
72275;SDS011;61204;49.980;8.358;2022-07-24T07:01:12;3.50;;;2.10;;
72275;SDS011;61204;49.980;8.358;2022-07-24T07:03:37;4.47;;;2.50;;
72275;SDS011;61204;49.980;8.358;2022-07-24T07:06:07;2.05;;;1.83;;
72275;SDS011;61204;49.980;8.358;2022-07-24T07:08:33;4.70;;;2.08;;
72275;SDS011;61204;49.980;8.358;2022-07-24T07:11:02;3.47;;;2.10;;
72275;SDS011;61204;49.980;8.358;2022-07-24T07:13:28;3.47;;;2.47;;
72275;SDS011;61204;49.980;8.358;2022-07-24T07:15:54;2.88;;;1.83;;
72275;SDS011;61204;49.980;8.358;2022-07-24T07:18:19;2.53;;;2.10;;
72275;SDS011;61204;49.980;8.358;2022-07-24T07:20:45;4.85;;;1.92;;
72275;SDS011;61204;49.980;8.358;2022-07-24T07:23:10;7.28;;;2.30;;
72275;SDS011;61204;49.980;8.358;2022-07-24T07:25:41;2.55;;;1.75;;
72275;SDS011;61204;49.980;8.358;2022-07-24T07:28:10;2.47;;;2.08;;
72275;SDS011;61204;49.980;8.358;2022-07-24T07:30:35;3.22;;;2.40;;
72275;SDS011;61204;49.980;8.358;2022-07-24T07:33:01;5.32;;;1.95;;
72275;SDS011;61204;49.980;8.358;2022-07-24T07:35:26;4.35;;;2.20;;
72275;SDS011;61204;49.980;8.358;2022-07-24T07:37:52;3.53;;;2.05;;
72275;SDS011;61204;49.980;8.358;2022-07-24T07:40:18;4.03;;;2.10;;
72275;SDS011;61204;49.980;8.358;2022-07-24T07:42:46;4.97;;;2.22;;
72275;SDS011;61204;49.980;8.358;2022-07-24T07:45:12;4.22;;;2.20;;
72275;SDS011;61204;49.980;8.358;2022-07-24T07:47:38;3.30;;;2.08;;
72275;SDS011;61204;49.980;8.358;2022-07-24T07:50:04;3.15;;;2.10;;
72275;SDS011;61204;49.980;8.358;2022-07-24T07:52:30;4.72;;;2.17;;
72275;SDS011;61204;49.980;8.358;2022-07-24T07:54:56;3.65;;;2.20;;
72275;SDS011;61204;49.980;8.358;2022-07-24T07:57:22;3.17;;;2.20;;
72275;SDS011;61204;49.980;8.358;2022-07-24T07:59:48;4.60;;;2.15;;
72275;SDS011;61204;49.980;8.358;2022-07-24T08:02:16;4.78;;;2.95;;
72275;SDS011;61204;49.980;8.358;2022-07-24T08:04:45;4.05;;;2.22;;
72275;SDS011;61204;49.980;8.358;2022-07-24T08:07:11;4.03;;;2.45;;
72275;SDS011;61204;49.980;8.358;2022-07-24T08:09:37;2.47;;;2.00;;
72275;SDS011;61204;49.980;8.358;2022-07-24T08:12:03;3.58;;;2.17;;
72275;SDS011;61204;49.980;8.358;2022-07-24T08:14:30;2.42;;;2.22;;
72275;SDS011;61204;49.980;8.358;2022-07-24T08:16:58;4.45;;;2.03;;
72275;SDS011;61204;49.980;8.358;2022-07-24T08:19:27;5.15;;;2.00;;
72275;SDS011;61204;49.980;8.358;2022-07-24T08:21:52;2.88;;;2.47;;
72275;SDS011;61204;49.980;8.358;2022-07-24T08:24:18;2.50;;;2.00;;
72275;SDS011;61204;49.980;8.358;2022-07-24T08:26:48;4.15;;;2.00;;
72275;SDS011;61204;49.980;8.358;2022-07-24T08:29:17;2.53;;;2.05;;
72275;SDS011;61204;49.980;8.358;2022-07-24T08:31:43;3.78;;;2.40;;
72275;SDS011;61204;49.980;8.358;2022-07-24T08:34:19;3.03;;;2.50;;
72275;SDS011;61204;49.980;8.358;2022-07-24T08:36:46;2.97;;;2.10;;
72275;SDS011;61204;49.980;8.358;2022-07-24T08:39:12;3.38;;;2.25;;
72275;SDS011;61204;49.980;8.358;2022-07-24T08:41:40;4.00;;;2.25;;
72275;SDS011;61204;49.980;8.358;2022-07-24T08:44:08;4.00;;;2.45;;
72275;SDS011;61204;49.980;8.358;2022-07-24T08:46:38;5.32;;;2.30;;
72275;SDS011;61204;49.980;8.358;2022-07-24T08:49:07;4.10;;;2.30;;
72275;SDS011;61204;49.980;8.358;2022-07-24T08:51:40;2.22;;;1.95;;
72275;SDS011;61204;49.980;8.358;2022-07-24T08:54:13;3.05;;;2.00;;
72275;SDS011;61204;49.980;8.358;2022-07-24T08:56:39;3.35;;;2.10;;
72275;SDS011;61204;49.980;8.358;2022-07-24T08:59:20;2.15;;;1.95;;
72275;SDS011;61204;49.980;8.358;2022-07-24T09:01:49;4.47;;;2.80;;
72275;SDS011;61204;49.980;8.358;2022-07-24T09:04:33;4.45;;;2.45;;
72275;SDS011;61204;49.980;8.358;2022-07-24T09:07:23;3.47;;;2.67;;
72275;SDS011;61204;49.980;8.358;2022-07-24T09:09:59;4.32;;;2.20;;
72275;SDS011;61204;49.980;8.358;2022-07-24T09:12:33;4.18;;;2.33;;
72275;SDS011;61204;49.980;8.358;2022-07-24T09:15:20;3.22;;;2.20;;
72275;SDS011;61204;49.980;8.358;2022-07-24T09:17:51;4.00;;;2.50;;
72275;SDS011;61204;49.980;8.358;2022-07-24T09:20:26;5.15;;;2.35;;
72275;SDS011;61204;49.980;8.358;2022-07-24T09:23:03;3.80;;;2.67;;
72275;SDS011;61204;49.980;8.358;2022-07-24T09:25:49;3.05;;;2.45;;
72275;SDS011;61204;49.980;8.358;2022-07-24T09:28:18;3.83;;;2.45;;
72275;SDS011;61204;49.980;8.358;2022-07-24T09:30:46;3.55;;;2.42;;
72275;SDS011;61204;49.980;8.358;2022-07-24T09:33:16;3.83;;;2.47;;
72275;SDS011;61204;49.980;8.358;2022-07-24T09:35:49;9.45;;;2.60;;
72275;SDS011;61204;49.980;8.358;2022-07-24T09:38:18;2.40;;;2.20;;
72275;SDS011;61204;49.980;8.358;2022-07-24T09:40:51;2.60;;;2.25;;
72275;SDS011;61204;49.980;8.358;2022-07-24T09:43:30;3.55;;;2.70;;
72275;SDS011;61204;49.980;8.358;2022-07-24T09:46:03;3.47;;;2.58;;
72275;SDS011;61204;49.980;8.358;2022-07-24T09:48:38;3.55;;;2.40;;
72275;SDS011;61204;49.980;8.358;2022-07-24T09:51:25;4.72;;;2.60;;
72275;SDS011;61204;49.980;8.358;2022-07-24T09:53:55;4.80;;;2.63;;
72275;SDS011;61204;49.980;8.358;2022-07-24T09:56:25;3.15;;;2.80;;
72275;SDS011;61204;49.980;8.358;2022-07-24T09:58:53;3.53;;;2.15;;
72275;SDS011;61204;49.980;8.358;2022-07-24T10:01:25;3.53;;;2.55;;
72275;SDS011;61204;49.980;8.358;2022-07-24T10:03:54;4.18;;;2.67;;
72275;SDS011;61204;49.980;8.358;2022-07-24T10:06:26;2.78;;;2.50;;
72275;SDS011;61204;49.980;8.358;2022-07-24T10:08:53;3.97;;;2.63;;
72275;SDS011;61204;49.980;8.358;2022-07-24T10:11:21;5.05;;;2.90;;
72275;SDS011;61204;49.980;8.358;2022-07-24T10:13:47;3.70;;;2.25;;
72275;SDS011;61204;49.980;8.358;2022-07-24T10:18:55;4.65;;;2.72;;
72275;SDS011;61204;49.980;8.358;2022-07-24T10:21:30;4.75;;;2.78;;
72275;SDS011;61204;49.980;8.358;2022-07-24T10:26:34;4.10;;;2.90;;
72275;SDS011;61204;49.980;8.358;2022-07-24T10:29:12;2.92;;;2.58;;
72275;SDS011;61204;49.980;8.358;2022-07-24T10:31:49;3.47;;;2.58;;
72275;SDS011;61204;49.980;8.358;2022-07-24T10:36:51;3.72;;;2.80;;
72275;SDS011;61204;49.980;8.358;2022-07-24T10:45:37;3.47;;;2.90;;
72275;SDS011;61204;49.980;8.358;2022-07-24T10:53:22;3.50;;;3.17;;
72275;SDS011;61204;49.980;8.358;2022-07-24T10:56:26;3.20;;;2.85;;
72275;SDS011;61204;49.980;8.358;2022-07-24T10:59:08;4.15;;;3.10;;
72275;SDS011;61204;49.980;8.358;2022-07-24T11:01:43;4.22;;;3.10;;
72275;SDS011;61204;49.980;8.358;2022-07-24T11:06:53;3.10;;;2.80;;
72275;SDS011;61204;49.980;8.358;2022-07-24T11:12:41;4.72;;;3.35;;
72275;SDS011;61204;49.980;8.358;2022-07-24T11:15:08;4.90;;;2.97;;
72275;SDS011;61204;49.980;8.358;2022-07-24T11:17:52;3.67;;;3.28;;
72275;SDS011;61204;49.980;8.358;2022-07-24T11:20:37;3.88;;;3.22;;
72275;SDS011;61204;49.980;8.358;2022-07-24T11:23:04;4.47;;;3.30;;
72275;SDS011;61204;49.980;8.358;2022-07-24T11:25:45;4.87;;;3.40;;
72275;SDS011;61204;49.980;8.358;2022-07-24T11:28:13;3.58;;;3.28;;
72275;SDS011;61204;49.980;8.358;2022-07-24T11:30:43;5.28;;;3.70;;
72275;SDS011;61204;49.980;8.358;2022-07-24T11:33:11;3.97;;;3.58;;
72275;SDS011;61204;49.980;8.358;2022-07-24T11:35:48;5.30;;;4.07;;
72275;SDS011;61204;49.980;8.358;2022-07-24T11:38:16;4.57;;;3.50;;
72275;SDS011;61204;49.980;8.358;2022-07-24T11:40:52;5.28;;;4.20;;
72275;SDS011;61204;49.980;8.358;2022-07-24T11:43:32;4.45;;;3.35;;
72275;SDS011;61204;49.980;8.358;2022-07-24T11:45:59;3.92;;;3.55;;
72275;SDS011;61204;49.980;8.358;2022-07-24T11:48:24;4.45;;;3.13;;
72275;SDS011;61204;49.980;8.358;2022-07-24T11:50:50;6.55;;;3.42;;
72275;SDS011;61204;49.980;8.358;2022-07-24T11:53:32;4.25;;;3.25;;
72275;SDS011;61204;49.980;8.358;2022-07-24T11:56:02;4.05;;;3.45;;
72275;SDS011;61204;49.980;8.358;2022-07-24T11:58:29;6.43;;;3.70;;
72275;SDS011;61204;49.980;8.358;2022-07-24T12:01:18;3.83;;;3.30;;
72275;SDS011;61204;49.980;8.358;2022-07-24T12:03:52;4.90;;;3.13;;
72275;SDS011;61204;49.980;8.358;2022-07-24T12:06:22;4.03;;;3.60;;
72275;SDS011;61204;49.980;8.358;2022-07-24T12:08:48;3.65;;;3.30;;
72275;SDS011;61204;49.980;8.358;2022-07-24T12:11:21;5.50;;;3.55;;
72275;SDS011;61204;49.980;8.358;2022-07-24T12:13:50;4.03;;;3.33;;
72275;SDS011;61204;49.980;8.358;2022-07-24T12:16:23;4.13;;;2.80;;
72275;SDS011;61204;49.980;8.358;2022-07-24T12:21:57;4.18;;;3.72;;
72275;SDS011;61204;49.980;8.358;2022-07-24T12:24:23;5.05;;;3.38;;
72275;SDS011;61204;49.980;8.358;2022-07-24T12:26:52;4.63;;;3.10;;
72275;SDS011;61204;49.980;8.358;2022-07-24T12:29:23;3.70;;;3.22;;
72275;SDS011;61204;49.980;8.358;2022-07-24T12:32:13;3.97;;;3.58;;
72275;SDS011;61204;49.980;8.358;2022-07-24T12:34:47;3.33;;;2.90;;
72275;SDS011;61204;49.980;8.358;2022-07-24T12:37:14;3.58;;;3.28;;
72275;SDS011;61204;49.980;8.358;2022-07-24T12:39:46;4.30;;;3.20;;
72275;SDS011;61204;49.980;8.358;2022-07-24T12:42:31;4.32;;;2.97;;
72275;SDS011;61204;49.980;8.358;2022-07-24T12:45:06;3.53;;;3.20;;
72275;SDS011;61204;49.980;8.358;2022-07-24T12:48:00;3.30;;;3.00;;
72275;SDS011;61204;49.980;8.358;2022-07-24T12:50:49;3.35;;;3.05;;
72275;SDS011;61204;49.980;8.358;2022-07-24T12:53:42;4.05;;;3.17;;
72275;SDS011;61204;49.980;8.358;2022-07-24T12:58:51;4.07;;;3.67;;
72275;SDS011;61204;49.980;8.358;2022-07-24T13:01:46;3.83;;;3.35;;
72275;SDS011;61204;49.980;8.358;2022-07-24T13:04:19;4.50;;;3.20;;
72275;SDS011;61204;49.980;8.358;2022-07-24T13:06:49;4.38;;;3.35;;
72275;SDS011;61204;49.980;8.358;2022-07-24T13:09:20;4.38;;;3.30;;
72275;SDS011;61204;49.980;8.358;2022-07-24T13:11:48;4.55;;;3.65;;
72275;SDS011;61204;49.980;8.358;2022-07-24T13:14:17;3.60;;;3.30;;
72275;SDS011;61204;49.980;8.358;2022-07-24T13:16:47;3.88;;;3.53;;
72275;SDS011;61204;49.980;8.358;2022-07-24T13:19:19;5.07;;;3.20;;
72275;SDS011;61204;49.980;8.358;2022-07-24T13:21:47;3.90;;;3.30;;
72275;SDS011;61204;49.980;8.358;2022-07-24T13:24:15;3.72;;;3.30;;
72275;SDS011;61204;49.980;8.358;2022-07-24T13:26:42;4.15;;;3.05;;
72275;SDS011;61204;49.980;8.358;2022-07-24T13:29:09;3.42;;;3.10;;
72275;SDS011;61204;49.980;8.358;2022-07-24T13:31:38;4.43;;;3.10;;
72275;SDS011;61204;49.980;8.358;2022-07-24T13:34:06;3.75;;;3.15;;
72275;SDS011;61204;49.980;8.358;2022-07-24T13:36:34;3.50;;;3.05;;
72275;SDS011;61204;49.980;8.358;2022-07-24T13:39:08;3.38;;;3.08;;
72275;SDS011;61204;49.980;8.358;2022-07-24T13:41:34;3.40;;;3.00;;
72275;SDS011;61204;49.980;8.358;2022-07-24T13:44:02;6.40;;;2.78;;
72275;SDS011;61204;49.980;8.358;2022-07-24T13:46:30;3.67;;;3.30;;
72275;SDS011;61204;49.980;8.358;2022-07-24T13:49:00;3.50;;;2.80;;
72275;SDS011;61204;49.980;8.358;2022-07-24T13:51:31;4.55;;;3.20;;
72275;SDS011;61204;49.980;8.358;2022-07-24T13:53:58;3.50;;;3.20;;
72275;SDS011;61204;49.980;8.358;2022-07-24T13:56:25;3.70;;;2.97;;
72275;SDS011;61204;49.980;8.358;2022-07-24T13:58:52;4.57;;;3.20;;
72275;SDS011;61204;49.980;8.358;2022-07-24T14:01:18;3.63;;;3.10;;
72275;SDS011;61204;49.980;8.358;2022-07-24T14:03:46;4.07;;;2.97;;
72275;SDS011;61204;49.980;8.358;2022-07-24T14:06:12;2.97;;;2.78;;
72275;SDS011;61204;49.980;8.358;2022-07-24T14:08:38;3.90;;;2.78;;
72275;SDS011;61204;49.980;8.358;2022-07-24T14:11:08;4.05;;;3.40;;
72275;SDS011;61204;49.980;8.358;2022-07-24T14:13:34;3.58;;;3.20;;
72275;SDS011;61204;49.980;8.358;2022-07-24T14:16:03;4.40;;;3.60;;
72275;SDS011;61204;49.980;8.358;2022-07-24T14:18:30;4.53;;;3.13;;
72275;SDS011;61204;49.980;8.358;2022-07-24T14:20:58;3.45;;;3.08;;
72275;SDS011;61204;49.980;8.358;2022-07-24T14:23:24;5.55;;;3.63;;
72275;SDS011;61204;49.980;8.358;2022-07-24T14:25:52;3.30;;;3.00;;
72275;SDS011;61204;49.980;8.358;2022-07-24T14:28:17;4.35;;;3.25;;
72275;SDS011;61204;49.980;8.358;2022-07-24T14:30:46;3.63;;;3.15;;
72275;SDS011;61204;49.980;8.358;2022-07-24T14:33:14;3.70;;;3.30;;
72275;SDS011;61204;49.980;8.358;2022-07-24T14:35:40;4.20;;;3.45;;
72275;SDS011;61204;49.980;8.358;2022-07-24T14:38:06;3.55;;;3.22;;
72275;SDS011;61204;49.980;8.358;2022-07-24T14:40:32;4.13;;;2.95;;
72275;SDS011;61204;49.980;8.358;2022-07-24T14:42:57;4.40;;;3.25;;
72275;SDS011;61204;49.980;8.358;2022-07-24T14:45:23;6.15;;;3.55;;
72275;SDS011;61204;49.980;8.358;2022-07-24T14:47:51;4.63;;;3.67;;
72275;SDS011;61204;49.980;8.358;2022-07-24T14:50:17;4.00;;;3.42;;
72275;SDS011;61204;49.980;8.358;2022-07-24T14:52:45;3.60;;;3.30;;
72275;SDS011;61204;49.980;8.358;2022-07-24T14:55:11;3.55;;;3.13;;
72275;SDS011;61204;49.980;8.358;2022-07-24T14:57:36;4.15;;;3.72;;
72275;SDS011;61204;49.980;8.358;2022-07-24T15:00:03;4.32;;;3.45;;
72275;SDS011;61204;49.980;8.358;2022-07-24T15:02:31;4.22;;;3.22;;
72275;SDS011;61204;49.980;8.358;2022-07-24T15:04:57;3.88;;;3.35;;
72275;SDS011;61204;49.980;8.358;2022-07-24T15:07:23;4.35;;;3.83;;
72275;SDS011;61204;49.980;8.358;2022-07-24T15:09:50;4.13;;;3.70;;
72275;SDS011;61204;49.980;8.358;2022-07-24T15:12:18;4.97;;;3.45;;
72275;SDS011;61204;49.980;8.358;2022-07-24T15:14:46;4.13;;;3.20;;
72275;SDS011;61204;49.980;8.358;2022-07-24T15:17:14;3.83;;;3.33;;
72275;SDS011;61204;49.980;8.358;2022-07-24T15:19:39;4.13;;;3.20;;
72275;SDS011;61204;49.980;8.358;2022-07-24T15:22:05;4.28;;;3.67;;
72275;SDS011;61204;49.980;8.358;2022-07-24T15:24:33;3.72;;;3.40;;
72275;SDS011;61204;49.980;8.358;2022-07-24T15:26:58;3.78;;;3.47;;